Pelham Manor, New York
Current Conditions -  °F | °C
As of 2:51 AM on Sunday 28 Dec 2014 (Local Time) from KLGA Reporting Station
Broken Clouds Broken Clouds  
Wind Chill: 44°   Ceiling: 25000
Heat Index: 47°   Visibility: 10mi
Dew Point: 36°   Wind: 7mph
Humidity: 66%   Direction: 200°SSW
Pressure: 29.96"   Gusts: NA
Location:  40.9001°N, 73.8065°W
Report Text: KLGA 280751Z 20006KT 10SM FEW075 BKN250 08/02 A2996 RMK AO2 SLP146 T00830022
Loading
Personal Weather Stations






























Interactive Weather Map New forecast layout! Learn more

10-Day Weather Forecast

Advertisements
Track Severe Weather on mobile